Mahaffey, PA (15757)

3:11 PM EDT on September 04, 2015 (GMT -0400)
NE Indiana County Pa. | | Change Station
CLOSE
Current Station
Personal Weather Station
Location: Cherry Tree, PA
Elevation: 1601 ft
Nearby Weather Stations

Elev 1601 ft 40.78 °N, 78.81 °W | Updated 44 seconds ago

Partly Cloudy
Partly Cloudy
81.3 °F
Feels Like 85 °F
N
0.0
Wind Variable Wind from SE
Gusts 2.0 mph

Today
High -- | Low -- °F
--% Chance of Precip.
Yesterday
High -- | Low -- °F
Precip. -- in
6:44 AM 7:42 PM
Waning Gibbous, 57% visible
Pressure 30.06 in
Visibility 10.0 miles
Clouds Few 4400 ft
Heat Index 85 °F
Dew Point 70 °F
Humidity 68%
Rainfall 0.00 in
Snow Depth Not available.
UV 7 out of 12
Pollen 8.50 out of 12
Air Quality Not available.
Flu Activity Not available.
METAR KFIG 041854Z AUTO VRB04KT 10SM FEW044 31/18 A3009 RMK AO2 SLP179 T03110183
Pressure 30.06 in
Visibility 10.0 miles
Clouds Few 4400 ft
Heat Index 85 °F
Dew Point 70 °F
Humidity 68%
Rainfall 0.00 in
Snow Depth Not available.
UV 7 out of 12
Pollen 8.50 out of 12
Air Quality Not available.
Flu Activity Not available.
METAR KFIG 041854Z AUTO VRB04KT 10SM FEW044 31/18 A3009 RMK AO2 SLP179 T03110183

10-Day Weather Forecast

×

Almanac

Astronomy

Sep. 04, 2015 Rise Set
Actual Time
Civil Twilight
Nautical Twilight
Astronomical Twilight
Moon
Length of Visible Light
Length of Day
Tomorrow will be .
, % of the Moon is Illuminated

Today's Extremes

State Highs State Lows

Community

WunderPhotos

Upload Photos

1,852,271 photos uploaded!

WunderBlogs® & News

Nearby

Air Quality

  Air Quality AQ Index Pollutant
Not available.

Snow Depth

Station Depth Elevation

Earthquake Activity

City Distance Mag. Time & Date
Minimum magnitude displayed is 2.5.

Coastal Water Temperatures

Place Temperature

Stations

Nearby Weather Stations

Station Location Temp. Windchill Dew Point Humidity Wind Precip. Elev Updated Type